Time;durP1;ratioP1;P1;durP2;ratioP2;P2;SDS_P1;SDS_P2;PMS_P1;PMS_P2;Temp;Humidity;BMP_temperature;BMP_pressure;BME280_temperature;BME280_humidity;BME280_pressure;Samples;Min_cycle;Max_cycle;Signal;HPM_P1;HPM_P2
2023/08/26 00:01:47;;;;;;;1.35;1.25;;;;;;;21.62;100.00;98013.66;4173688;28;20302;-62
2023/08/26 00:03:48;;;;;;;1.65;1.15;;;;;;;21.51;100.00;98018.00;4172856;28;20219;-62
2023/08/26 00:05:50;;;;;;;1.67;1.40;;;;;;;21.38;100.00;98007.88;4173304;28;20760;-62
2023/08/26 00:07:52;;;;;;;2.25;1.42;;;;;;;21.35;100.00;98008.53;4174095;28;20562;-62
2023/08/26 00:09:54;;;;;;;0.90;0.85;;;;;;;21.47;100.00;98005.88;4173969;28;20208;-62
2023/08/26 00:11:55;;;;;;;1.77;1.38;;;;;;;21.45;100.00;98005.41;4172644;28;20195;-62
2023/08/26 00:13:57;;;;;;;0.88;0.82;;;;;;;21.46;100.00;98015.38;4172281;28;20532;-62
2023/08/26 00:15:58;;;;;;;1.58;1.23;;;;;;;21.41;100.00;98013.59;4172030;28;20247;-62
2023/08/26 00:18:00;;;;;;;1.40;1.17;;;;;;;21.42;100.00;98015.22;4172918;28;20286;-62
2023/08/26 00:20:05;;;;;;;1.40;1.30;;;;;;;21.41;100.00;98023.91;4171744;28;20582;-62
2023/08/26 00:22:07;;;;;;;1.88;1.40;;;;;;;21.35;100.00;98025.22;4174313;28;20204;-62
2023/08/26 00:24:10;;;;;;;0.82;0.82;;;;;;;21.33;100.00;98013.59;4173239;28;20265;-62
2023/08/26 00:26:12;;;;;;;1.13;1.02;;;;;;;21.20;100.00;98012.66;4176232;28;20227;-63
2023/08/26 00:28:13;;;;;;;1.38;0.98;;;;;;;21.21;100.00;98007.91;4176711;28;20754;-62
2023/08/26 00:30:15;;;;;;;1.02;0.93;;;;;;;21.21;100.00;98007.91;4176599;28;20203;-62
2023/08/26 00:32:17;;;;;;;1.23;1.13;;;;;;;21.19;100.00;98011.00;4174867;28;20200;-61
2023/08/26 00:34:18;;;;;;;1.30;1.20;;;;;;;21.09;100.00;98003.03;4168920;28;20203;-62
2023/08/26 00:36:20;;;;;;;1.15;1.08;;;;;;;21.11;100.00;97991.56;4175423;28;20255;-62
2023/08/26 00:38:22;;;;;;;1.85;1.58;;;;;;;21.07;100.00;98007.28;4175816;28;20246;-62
2023/08/26 00:40:24;;;;;;;0.98;0.80;;;;;;;21.02;100.00;97999.09;4174968;28;20735;-61
2023/08/26 00:42:25;;;;;;;1.23;0.93;;;;;;;21.01;100.00;97997.47;4176059;28;20716;-61
2023/08/26 00:44:27;;;;;;;13.27;2.08;;;;;;;21.04;100.00;98011.53;4175686;28;20208;-62
2023/08/26 00:46:29;;;;;;;12.13;2.58;;;;;;;20.97;100.00;98007.63;4174695;28;20618;-62
2023/08/26 00:48:31;;;;;;;33.42;3.05;;;;;;;20.94;100.00;98022.19;4157782;28;20200;-62
2023/08/26 00:50:32;;;;;;;1.40;1.30;;;;;;;21.02;100.00;98029.69;4170006;28;20235;-61
2023/08/26 00:52:34;;;;;;;23.80;2.33;;;;;;;21.02;100.00;98026.91;4188984;28;20235;-61
2023/08/26 00:54:35;;;;;;;20.33;2.30;;;;;;;21.06;100.00;98025.13;4172354;28;20230;-61
2023/08/26 00:56:38;;;;;;;6.90;3.08;;;;;;;20.97;100.00;98024.34;4174966;28;20223;-61
2023/08/26 00:58:40;;;;;;;3.05;2.50;;;;;;;21.03;100.00;98026.59;4172489;28;20670;-62
2023/08/26 01:00:42;;;;;;;2.20;1.45;;;;;;;21.04;100.00;98030.22;4172757;28;20254;-61
2023/08/26 01:02:44;;;;;;;1.98;1.48;;;;;;;20.97;100.00;98029.91;4174427;28;20243;-61
2023/08/26 01:04:46;;;;;;;1.48;1.38;;;;;;;20.97;100.00;98025.13;4174736;28;20374;-62
2023/08/26 01:06:48;;;;;;;2.15;1.45;;;;;;;20.93;100.00;98032.53;4175305;28;20255;-62
2023/08/26 01:08:50;;;;;;;1.65;0.85;;;;;;;20.82;100.00;98031.19;4172836;28;20242;-62
2023/08/26 01:10:54;;;;;;;0.82;0.73;;;;;;;20.79;100.00;98031.00;4167239;28;20291;-61
2023/08/26 01:13:09;;;;;;;1.45;1.30;;;;;;;20.79;100.00;98028.22;4176112;28;20294;-61
2023/08/26 01:15:12;;;;;;;6.60;2.05;;;;;;;20.88;100.00;98034.63;4174973;28;20195;-61
2023/08/26 01:17:15;;;;;;;0.75;0.40;;;;;;;20.79;100.00;98033.78;4173842;28;20251;-61
2023/08/26 01:19:53;;;;;;;9.45;1.35;;;;;;;20.83;100.00;98029.19;4171171;28;20241;-61
2023/08/26 01:21:56;;;;;;;0.57;0.55;;;;;;;20.87;100.00;98033.81;4121193;28;20216;-61
2023/08/26 01:23:58;;;;;;;0.88;0.80;;;;;;;20.80;100.00;98029.88;4144878;28;22388;-61
2023/08/26 01:26:00;;;;;;;0.50;0.50;;;;;;;20.84;100.00;98023.31;4174279;28;20227;-62
2023/08/26 01:28:02;;;;;;;6.75;0.88;;;;;;;20.87;100.00;98031.03;4175833;28;20238;-62
2023/08/26 01:30:05;;;;;;;1.17;1.10;;;;;;;20.79;100.00;98033.78;4175808;28;20314;-61
2023/08/26 01:32:09;;;;;;;1.20;1.15;;;;;;;20.76;100.00;98040.00;4173062;28;20238;-61
2023/08/26 01:34:20;;;;;;;2.17;1.10;;;;;;;20.70;100.00;98030.22;4175514;28;20236;-62
2023/08/26 01:36:23;;;;;;;0.73;0.50;;;;;;;20.55;100.00;98039.84;4182297;28;20249;-62
2023/08/26 01:38:25;;;;;;;1.05;0.68;;;;;;;20.38;100.00;98039.81;4185543;28;20265;-61
2023/08/26 01:40:27;;;;;;;7.20;0.90;;;;;;;20.39;100.00;98035.06;4175076;28;20235;-61
2023/08/26 01:42:30;;;;;;;13.25;1.58;;;;;;;20.41;100.00;98038.34;4171864;28;20212;-61
2023/08/26 01:44:32;;;;;;;3.40;1.40;;;;;;;20.29;100.00;98035.38;4172347;28;20638;-61
2023/08/26 01:46:36;;;;;;;5.95;1.70;;;;;;;20.26;100.00;98039.63;4174387;28;20223;-63
2023/08/26 01:48:38;;;;;;;1.30;1.20;;;;;;;20.23;100.00;98054.16;4176384;28;20207;-64
2023/08/26 01:50:40;;;;;;;4.05;1.00;;;;;;;20.25;100.00;98051.88;4174900;28;21122;-63
2023/08/26 01:52:42;;;;;;;3.40;1.33;;;;;;;20.19;100.00;98052.38;4175512;28;20239;-63
2023/08/26 01:54:48;;;;;;;2.28;1.73;;;;;;;20.13;100.00;98064.78;4176871;28;20238;-63
2023/08/26 01:56:50;;;;;;;1.08;1.08;;;;;;;20.12;100.00;98063.13;4175198;28;20276;-63
2023/08/26 01:58:52;;;;;;;1.15;1.08;;;;;;;20.14;100.00;98071.97;4174145;28;20263;-63
2023/08/26 02:00:53;;;;;;;1.55;1.23;;;;;;;20.21;100.00;98077.88;4175228;28;20257;-63
2023/08/26 02:02:55;;;;;;;2.42;2.13;;;;;;;20.29;100.00;98074.28;4175488;28;20231;-63
2023/08/26 02:04:57;;;;;;;1.15;0.63;;;;;;;20.27;100.00;98071.03;4174648;28;20581;-63
2023/08/26 02:06:58;;;;;;;0.88;0.88;;;;;;;20.12;100.00;98069.50;4174716;28;20653;-63
2023/08/26 02:09:00;;;;;;;8.63;0.75;;;;;;;20.13;100.00;98064.78;4168734;28;20207;-62
2023/08/26 02:11:01;;;;;;;0.90;0.90;;;;;;;20.18;100.00;98079.31;4173192;28;20213;-62
2023/08/26 02:13:03;;;;;;;1.02;0.85;;;;;;;20.14;100.00;98072.78;4174644;28;20303;-63
2023/08/26 02:15:06;;;;;;;2.72;0.73;;;;;;;20.16;100.00;98075.22;4173065;28;20624;-62
2023/08/26 02:17:07;;;;;;;3.35;1.52;;;;;;;20.15;100.00;98070.81;4175495;28;20314;-62
2023/08/26 02:19:09;;;;;;;1.25;0.80;;;;;;;20.09;100.00;98070.16;4175031;28;20317;-63
2023/08/26 02:21:12;;;;;;;0.75;0.70;;;;;;;20.00;100.00;98066.50;4174645;28;20294;-63
2023/08/26 02:23:14;;;;;;;34.70;0.98;;;;;;;19.96;100.00;98079.38;4168722;28;20203;-62
2023/08/26 02:25:16;;;;;;;0.80;0.80;;;;;;;19.97;100.00;98077.44;4170588;28;20227;-63
2023/08/26 02:27:17;;;;;;;1.17;1.17;;;;;;;19.95;100.00;98088.03;4175388;28;20247;-62
2023/08/26 02:29:19;;;;;;;7.97;1.30;;;;;;;19.90;100.00;98088.19;4174096;28;20212;-62
2023/08/26 02:31:21;;;;;;;1.33;1.23;;;;;;;19.87;100.00;98099.94;4170468;28;20905;-63
2023/08/26 02:33:24;;;;;;;2.28;1.58;;;;;;;19.80;100.00;98110.69;4174145;28;20210;-63
2023/08/26 02:35:26;;;;;;;1.10;1.00;;;;;;;19.82;100.00;98102.84;4173445;28;20219;-63
2023/08/26 02:37:27;;;;;;;1.48;1.38;;;;;;;19.77;100.00;98111.34;4173972;28;20200;-63
2023/08/26 02:39:29;;;;;;;1.52;1.25;;;;;;;19.79;100.00;98114.59;4174714;28;20306;-63
2023/08/26 02:41:30;;;;;;;1.15;1.05;;;;;;;19.92;100.00;98110.91;4174169;28;20261;-63
2023/08/26 02:43:32;;;;;;;4.38;0.70;;;;;;;19.97;100.00;98113.56;4174037;28;20219;-63
2023/08/26 02:45:34;;;;;;;7.90;0.82;;;;;;;19.81;100.00;98124.25;4172746;28;20740;-63
2023/08/26 02:47:35;;;;;;;4.32;1.98;;;;;;;19.79;100.00;98122.94;4174188;28;20219;-63
2023/08/26 02:49:37;;;;;;;1.63;0.55;;;;;;;19.75;100.00;98130.25;4174764;28;20227;-62
2023/08/26 02:51:38;;;;;;;0.70;0.70;;;;;;;19.89;100.00;98130.97;4170551;28;21377;-65
2023/08/26 02:53:40;;;;;;;0.90;0.50;;;;;;;19.77;100.00;98133.56;4171995;28;20207;-63
2023/08/26 02:55:43;;;;;;;0.80;0.80;;;;;;;19.68;100.00;98129.88;4174296;28;20583;-63
2023/08/26 02:57:44;;;;;;;0.93;0.88;;;;;;;19.72;100.00;98125.34;4172081;28;20203;-63
2023/08/26 02:59:46;;;;;;;1.50;1.35;;;;;;;19.82;100.00;98125.91;4171927;28;20238;-63
2023/08/26 03:01:57;;;;;;;2.90;1.65;;;;;;;19.85;100.00;98130.00;4175704;28;20211;-63
2023/08/26 03:03:59;;;;;;;0.88;0.85;;;;;;;19.81;100.00;98131.75;4171126;28;20214;-63
2023/08/26 03:06:02;;;;;;;0.50;0.50;;;;;;;19.82;100.00;98125.91;4176873;28;20235;-63
2023/08/26 03:08:04;;;;;;;0.60;0.60;;;;;;;19.88;100.00;98129.34;4177575;28;20234;-63
2023/08/26 03:10:06;;;;;;;9.65;1.23;;;;;;;19.81;100.00;98135.38;4177881;28;20631;-64
2023/08/26 03:12:07;;;;;;;0.45;0.45;;;;;;;19.80;100.00;98130.13;4178566;28;20717;-64
2023/08/26 03:14:09;;;;;;;0.73;0.70;;;;;;;19.82;100.00;98136.16;4173628;28;20199;-64
2023/08/26 03:16:11;;;;;;;0.85;0.85;;;;;;;19.72;100.00;98136.47;4171876;28;21245;-63
2023/08/26 03:18:12;;;;;;;1.25;1.15;;;;;;;19.85;100.00;98135.56;4171934;28;20234;-63
2023/08/26 03:20:14;;;;;;;0.68;0.68;;;;;;;19.87;100.00;98134.09;4155913;28;20211;-64
2023/08/26 03:22:16;;;;;;;3.30;1.10;;;;;;;19.78;100.00;98140.75;4165352;28;20228;-63
2023/08/26 03:24:17;;;;;;;0.77;0.77;;;;;;;19.73;100.00;98146.44;4173944;28;20632;-64
2023/08/26 03:26:19;;;;;;;1.05;0.70;;;;;;;19.78;100.00;98146.28;4171932;28;20702;-63
2023/08/26 03:28:20;;;;;;;1.10;0.70;;;;;;;19.64;100.00;98145.56;4174015;28;20563;-63
2023/08/26 03:30:22;;;;;;;2.30;0.90;;;;;;;19.59;100.00;98140.13;4172431;28;20234;-63
2023/08/26 03:32:24;;;;;;;1.20;1.08;;;;;;;19.59;100.00;98148.47;4173486;28;20673;-63
2023/08/26 03:34:26;;;;;;;0.70;0.70;;;;;;;19.62;100.00;98148.66;4173343;28;20210;-64
2023/08/26 03:36:28;;;;;;;0.70;0.55;;;;;;;19.60;100.00;98163.97;4166098;28;20632;-63
2023/08/26 03:38:30;;;;;;;0.73;0.73;;;;;;;19.55;100.00;98158.53;4172835;28;20227;-63
2023/08/26 03:40:32;;;;;;;1.45;0.88;;;;;;;19.53;100.00;98155.28;4174054;28;20626;-64
2023/08/26 03:42:33;;;;;;;4.40;1.70;;;;;;;19.42;100.00;98170.53;4171931;28;20253;-63
2023/08/26 03:44:36;;;;;;;7.47;1.17;;;;;;;19.33;100.00;98162.16;4173527;28;20748;-64
2023/08/26 03:46:37;;;;;;;0.40;0.40;;;;;;;19.30;100.00;98161.94;4170955;28;20254;-64
2023/08/26 03:48:39;;;;;;;0.60;0.60;;;;;;;19.45;100.00;98172.69;4173473;28;20244;-64
2023/08/26 03:50:53;;;;;;;6.05;1.10;;;;;;;19.51;100.00;98154.78;4175010;28;20692;-64
2023/08/26 03:52:55;;;;;;;0.75;0.75;;;;;;;19.04;100.00;98163.69;4172410;28;20203;-64
2023/08/26 03:54:56;;;;;;;0.40;0.40;;;;;;;19.09;100.00;98169.09;4173399;28;20269;-64
2023/08/26 03:56:58;;;;;;;2.67;0.77;;;;;;;19.20;100.00;98167.75;4175890;28;20261;-64
2023/08/26 03:58:59;;;;;;;0.77;0.75;;;;;;;19.10;100.00;98173.50;4177196;28;20195;-64
2023/08/26 04:01:02;;;;;;;0.30;0.30;;;;;;;19.22;100.00;98177.41;4178155;28;20606;-63
2023/08/26 04:03:05;;;;;;;0.60;0.60;;;;;;;19.20;100.00;98178.84;4175396;28;20215;-63
2023/08/26 04:05:07;;;;;;;0.50;0.50;;;;;;;19.13;100.00;98170.91;4171457;28;20350;-63
2023/08/26 04:07:09;;;;;;;0.82;0.82;;;;;;;19.12;100.00;98176.81;4175854;28;20313;-63
2023/08/26 04:09:11;;;;;;;0.47;0.47;;;;;;;18.97;100.00;98171.63;4175456;28;20208;-63
2023/08/26 04:11:15;;;;;;;0.50;0.50;;;;;;;19.09;100.00;98180.19;4176711;28;20247;-64
2023/08/26 04:13:21;;;;;;;1.25;0.88;;;;;;;18.79;100.00;98183.66;4176603;28;20251;-63
2023/08/26 04:15:23;;;;;;;1.25;0.93;;;;;;;18.50;100.00;98186.78;4174794;28;20303;-63
2023/08/26 04:17:25;;;;;;;1.02;0.98;;;;;;;18.52;100.00;98192.03;4176823;28;20283;-63
2023/08/26 04:19:27;;;;;;;0.63;0.63;;;;;;;18.43;100.00;98196.63;4159719;28;20216;-63
2023/08/26 04:21:29;;;;;;;1.02;0.70;;;;;;;18.27;100.00;98198.88;4176099;28;20208;-63
2023/08/26 04:23:31;;;;;;;0.70;0.70;;;;;;;18.23;100.00;98195.06;4176236;28;20235;-64
2023/08/26 04:25:32;;;;;;;1.13;1.02;;;;;;;18.48;100.00;98204.84;4177041;28;20219;-63
2023/08/26 04:27:34;;;;;;;0.38;0.38;;;;;;;18.46;100.00;98201.56;4172691;28;20200;-63
2023/08/26 04:29:35;;;;;;;0.47;0.47;;;;;;;18.60;100.00;98202.38;4175044;28;20239;-63
2023/08/26 04:31:37;;;;;;;0.68;0.68;;;;;;;18.43;100.00;98211.31;4177005;28;20250;-63
2023/08/26 04:33:39;;;;;;;0.80;0.80;;;;;;;18.46;100.00;98207.09;4176106;28;20210;-63
2023/08/26 04:35:40;;;;;;;0.47;0.45;;;;;;;18.30;100.00;98209.34;4172116;28;20234;-62
2023/08/26 04:37:42;;;;;;;0.65;0.65;;;;;;;18.45;100.00;98213.78;4175996;28;20617;-64
2023/08/26 04:39:43;;;;;;;0.60;0.60;;;;;;;18.42;100.00;98214.38;4176911;28;20627;-63
2023/08/26 04:41:45;;;;;;;0.70;0.70;;;;;;;18.34;100.00;98213.16;4175626;28;20998;-64
2023/08/26 04:43:48;;;;;;;0.50;0.50;;;;;;;18.50;100.00;98208.94;4170809;28;20671;-63
2023/08/26 04:45:52;;;;;;;0.68;0.40;;;;;;;18.41;100.00;98213.56;4176487;28;20319;-63
2023/08/26 04:47:54;;;;;;;0.60;0.60;;;;;;;18.47;100.00;98219.84;4177498;28;20235;-63
2023/08/26 04:49:56;;;;;;;1.05;1.02;;;;;;;18.50;99.49;98231.13;4175818;28;20208;-64
2023/08/26 04:51:59;;;;;;;0.40;0.40;;;;;;;18.62;97.96;98227.81;4175965;28;20231;-64
2023/08/26 04:54:00;;;;;;;0.47;0.35;;;;;;;18.29;97.48;98226.25;4176310;28;20307;-63
2023/08/26 04:56:03;;;;;;;0.55;0.35;;;;;;;18.26;97.78;98224.09;4176673;28;20229;-63
2023/08/26 04:58:07;;;;;;;0.57;0.57;;;;;;;18.25;98.08;98228.00;4175731;28;20208;-63
2023/08/26 05:00:10;;;;;;;0.65;0.65;;;;;;;18.18;97.05;98224.81;4175295;28;20291;-63
2023/08/26 05:02:12;;;;;;;1.48;1.38;;;;;;;18.14;97.67;98226.53;4175466;28;20335;-63
2023/08/26 05:04:14;;;;;;;32.53;1.33;;;;;;;17.96;96.29;98224.66;4168922;28;20311;-63
2023/08/26 05:06:15;;;;;;;8.10;0.65;;;;;;;18.10;95.37;98225.50;4173302;28;20299;-63
2023/08/26 05:08:17;;;;;;;1.35;0.68;;;;;;;18.18;96.58;98224.81;4178360;28;20291;-63
2023/08/26 05:10:19;;;;;;;0.63;0.63;;;;;;;18.27;94.69;98234.06;4180077;28;20843;-63
2023/08/26 05:12:21;;;;;;;0.20;0.20;;;;;;;18.43;94.43;98238.19;4179161;28;20836;-63
2023/08/26 05:14:25;;;;;;;1.35;0.50;;;;;;;18.44;93.55;98242.63;4178989;28;20657;-63
2023/08/26 05:16:27;;;;;;;0.43;0.43;;;;;;;18.06;91.12;98246.66;4176815;28;20223;-64
2023/08/26 05:18:29;;;;;;;0.28;0.28;;;;;;;18.25;93.41;98248.19;4174985;28;20291;-64
2023/08/26 05:20:30;;;;;;;0.35;0.35;;;;;;;18.22;92.59;98239.69;4175342;28;20286;-64
2023/08/26 05:22:32;;;;;;;1.27;0.45;;;;;;;18.35;92.96;98244.44;4176161;28;20291;-63
2023/08/26 05:24:34;;;;;;;1.02;0.60;;;;;;;18.36;90.23;98251.63;4174848;28;20216;-64
2023/08/26 05:26:37;;;;;;;0.20;0.20;;;;;;;18.35;90.93;98250.00;4174944;28;20235;-63
2023/08/26 05:28:38;;;;;;;0.57;0.57;;;;;;;18.37;89.32;98264.34;4176055;28;20208;-62
2023/08/26 05:30:40;;;;;;;1.25;0.93;;;;;;;18.23;89.00;98258.78;4175285;28;20242;-63
2023/08/26 05:32:42;;;;;;;0.45;0.45;;;;;;;18.29;90.32;98259.50;4160197;28;20203;-64
2023/08/26 05:34:43;;;;;;;0.40;0.40;;;;;;;18.21;86.99;98265.75;4174198;28;20207;-63
2023/08/26 05:36:45;;;;;;;0.70;0.70;;;;;;;18.33;89.52;98264.13;4156970;28;20221;-63
2023/08/26 05:38:47;;;;;;;0.30;0.30;;;;;;;18.27;87.55;98268.13;4175070;28;20255;-63
2023/08/26 05:40:48;;;;;;;0.30;0.30;;;;;;;18.10;84.56;98264.28;4175729;28;20258;-62
2023/08/26 05:42:50;;;;;;;0.30;0.30;;;;;;;18.26;85.80;98268.44;4174978;28;20295;-63
2023/08/26 05:44:51;;;;;;;2.03;1.42;;;;;;;18.22;85.67;98264.63;4174982;28;20235;-63
2023/08/26 05:46:54;;;;;;;0.55;0.43;;;;;;;18.27;83.94;98265.38;4175045;28;20303;-63
2023/08/26 05:48:56;;;;;;;0.40;0.40;;;;;;;18.26;83.14;98268.44;4175060;28;20201;-63
2023/08/26 05:50:58;;;;;;;0.52;0.47;;;;;;;18.26;81.56;98273.97;4175089;28;20348;-63
2023/08/26 05:53:00;;;;;;;0.70;0.55;;;;;;;18.44;82.20;98278.66;4171690;28;20299;-63
2023/08/26 05:55:01;;;;;;;0.35;0.35;;;;;;;18.35;79.48;98274.94;4172198;28;20246;-63
2023/08/26 05:57:03;;;;;;;17.73;0.63;;;;;;;18.39;79.04;98287.06;4172367;28;20220;-63
2023/08/26 05:59:05;;;;;;;0.57;0.57;;;;;;;18.33;78.62;98274.41;4175593;28;20204;-63
2023/08/26 06:01:06;;;;;;;0.75;0.50;;;;;;;18.43;79.50;98285.28;4171432;28;20654;-64
2023/08/26 06:03:08;;;;;;;0.40;0.40;;;;;;;18.46;79.50;98285.50;4174677;28;20339;-63
2023/08/26 06:05:09;;;;;;;0.55;0.55;;;;;;;18.57;80.47;98297.25;4174551;28;20244;-63
2023/08/26 06:07:11;;;;;;;0.35;0.35;;;;;;;18.62;80.40;98288.81;4173627;28;20647;-63
2023/08/26 06:09:13;;;;;;;0.50;0.50;;;;;;;18.65;79.91;98277.13;4174753;28;20204;-63
2023/08/26 06:11:15;;;;;;;0.30;0.30;;;;;;;18.70;79.33;98282.53;4174367;28;20291;-64
2023/08/26 06:13:17;;;;;;;0.50;0.50;;;;;;;18.65;78.82;98282.66;4175275;28;20242;-63
2023/08/26 06:15:18;;;;;;;1.52;0.85;;;;;;;18.44;75.99;98286.97;4172568;28;20276;-62
2023/08/26 06:17:20;;;;;;;0.70;0.70;;;;;;;18.43;75.40;98285.28;4170611;28;20270;-63
2023/08/26 06:19:21;;;;;;;0.40;0.40;;;;;;;18.57;77.90;98291.69;4166017;28;20235;-64
2023/08/26 06:21:23;;;;;;;0.32;0.32;;;;;;;18.41;76.01;98282.84;4174535;28;20204;-63
2023/08/26 06:23:24;;;;;;;1.20;0.32;;;;;;;18.67;78.58;98285.94;4172735;28;20300;-64
2023/08/26 06:25:26;;;;;;;0.65;0.52;;;;;;;18.75;78.47;98282.44;4171319;28;21162;-64
2023/08/26 06:27:28;;;;;;;0.30;0.30;;;;;;;18.74;77.94;98289.13;4173414;28;20297;-64
2023/08/26 06:29:30;;;;;;;0.35;0.35;;;;;;;18.75;77.25;98286.06;4174416;28;20204;-63
2023/08/26 06:31:32;;;;;;;0.40;0.40;;;;;;;18.77;78.70;98283.78;4174533;28;20700;-64
2023/08/26 06:33:33;;;;;;;0.47;0.47;;;;;;;18.80;77.03;98285.13;4173329;28;20204;-64
2023/08/26 06:35:35;;;;;;;0.60;0.40;;;;;;;18.91;77.91;98281.03;4173834;28;20247;-63
2023/08/26 06:37:36;;;;;;;0.30;0.30;;;;;;;18.98;76.70;98287.78;4175468;28;20250;-64
2023/08/26 06:39:38;;;;;;;0.17;0.17;;;;;;;19.09;75.47;98288.38;4175083;28;20707;-64
2023/08/26 06:41:40;;;;;;;1.98;0.80;;;;;;;19.11;75.67;98286.94;4175371;28;20255;-63
2023/08/26 06:43:41;;;;;;;0.60;0.60;;;;;;;19.14;75.71;98282.72;4172982;28;20215;-64
2023/08/26 06:45:43;;;;;;;0.20;0.20;;;;;;;19.25;80.40;98282.22;4175583;28;20286;-63
2023/08/26 06:47:45;;;;;;;0.60;0.60;;;;;;;19.18;77.16;98280.97;4172952;28;20291;-64
2023/08/26 06:49:46;;;;;;;0.20;0.20;;;;;;;19.21;77.25;98286.75;4173063;28;20204;-64
2023/08/26 06:51:48;;;;;;;0.30;0.30;;;;;;;19.25;76.27;98276.66;4174601;28;20212;-63
2023/08/26 06:53:49;;;;;;;0.40;0.40;;;;;;;19.56;76.96;98265.69;4174415;28;20206;-64
2023/08/26 06:55:52;;;;;;;0.50;0.50;;;;;;;20.12;80.25;98274.31;4174087;28;20315;-64
2023/08/26 06:57:53;;;;;;;4.45;0.40;;;;;;;20.24;74.96;98267.03;4173956;28;20214;-64
2023/08/26 06:59:55;;;;;;;0.35;0.35;;;;;;;20.77;74.98;98264.97;4173834;28;20246;-63
2023/08/26 07:01:57;;;;;;;14.07;0.55;;;;;;;20.99;73.09;98266.88;4173926;28;20298;-63
2023/08/26 07:04:08;;;;;;;0.13;0.13;;;;;;;21.23;72.32;98268.09;4173651;28;20236;-64
2023/08/26 07:06:11;;;;;;;0.20;0.20;;;;;;;20.94;70.10;98264.25;4173648;28;20252;-63
2023/08/26 07:08:13;;;;;;;0.25;0.25;;;;;;;20.85;68.59;98266.16;4169493;28;20207;-63
2023/08/26 07:10:15;;;;;;;1.10;0.40;;;;;;;21.64;68.07;98256.50;4168527;28;20204;-63
2023/08/26 07:12:16;;;;;;;0.68;0.68;;;;;;;22.28;70.21;98261.03;4177332;28;20238;-63
2023/08/26 07:14:18;;;;;;;0.20;0.20;;;;;;;22.44;66.37;98271.34;4177667;28;20239;-63
2023/08/26 07:16:19;;;;;;;4.22;0.73;;;;;;;22.17;64.02;98270.91;4176688;28;20302;-63
2023/08/26 07:18:21;;;;;;;0.35;0.35;;;;;;;21.86;61.97;98271.13;4177022;28;20206;-64
2023/08/26 07:20:24;;;;;;;0.40;0.40;;;;;;;22.17;62.17;98268.13;4177258;28;20207;-63
2023/08/26 07:22:26;;;;;;;4.05;0.85;;;;;;;22.18;61.70;98267.78;4177235;28;20234;-63
2023/08/26 07:24:30;;;;;;;0.75;0.75;;;;;;;22.07;61.97;98265.66;4172807;28;20234;-64
2023/08/26 07:26:32;;;;;;;0.25;0.25;;;;;;;22.39;59.28;98267.91;4172461;28;20227;-63
2023/08/26 07:28:33;;;;;;;0.40;0.40;;;;;;;22.36;60.40;98257.38;4173371;28;20247;-63
2023/08/26 07:30:35;;;;;;;0.52;0.40;;;;;;;22.38;58.72;98263.47;4172876;28;20203;-63
2023/08/26 07:32:37;;;;;;;0.45;0.32;;;;;;;22.90;61.59;98273.31;4173679;28;20292;-63
2023/08/26 07:34:38;;;;;;;0.98;0.40;;;;;;;22.80;59.59;98262.53;4172276;28;20253;-63
2023/08/26 07:36:40;;;;;;;0.20;0.20;;;;;;;22.90;60.58;98262.16;4170442;28;20783;-63
2023/08/26 07:38:42;;;;;;;15.40;0.30;;;;;;;22.68;56.93;98265.19;4172217;28;20262;-63
2023/08/26 07:40:44;;;;;;;0.30;0.30;;;;;;;22.63;58.80;98251.44;4172763;28;20670;-63
2023/08/26 07:42:45;;;;;;;0.50;0.50;;;;;;;22.98;56.30;98264.09;4173962;28;20321;-63
2023/08/26 07:44:47;;;;;;;0.65;0.30;;;;;;;23.29;55.47;98270.16;4170296;28;20670;-64
2023/08/26 07:46:50;;;;;;;0.22;0.22;;;;;;;23.49;55.33;98269.34;4174013;28;20227;-63
2023/08/26 07:48:54;;;;;;;0.20;0.20;;;;;;;23.37;54.12;98272.91;4172369;28;20257;-64
2023/08/26 07:50:56;;;;;;;0.20;0.20;;;;;;;23.47;54.02;98271.69;4173858;28;20199;-64
2023/08/26 07:52:57;;;;;;;2.00;0.30;;;;;;;22.99;54.79;98269.34;4172396;28;20293;-63
2023/08/26 07:54:59;;;;;;;0.30;0.30;;;;;;;23.31;55.60;98276.25;4173181;28;20294;-65
2023/08/26 07:57:01;;;;;;;0.65;0.65;;;;;;;23.38;53.16;98273.72;4166203;28;20705;-63
2023/08/26 07:59:02;;;;;;;0.20;0.20;;;;;;;23.16;53.63;98268.47;4169404;28;20196;-64
2023/08/26 08:01:05;;;;;;;0.43;0.43;;;;;;;23.98;55.27;98265.72;4170840;28;20591;-63
2023/08/26 08:03:06;;;;;;;0.20;0.20;;;;;;;23.79;53.07;98264.19;4172881;28;20269;-63
2023/08/26 08:05:08;;;;;;;0.63;0.50;;;;;;;24.10;55.08;98263.78;4173058;28;20257;-63
2023/08/26 08:07:10;;;;;;;0.20;0.20;;;;;;;23.95;53.80;98267.22;4167697;28;20274;-62
2023/08/26 08:09:12;;;;;;;1.75;0.25;;;;;;;24.29;54.01;98266.88;4171710;28;20385;-61
2023/08/26 08:11:13;;;;;;;0.57;0.40;;;;;;;24.47;54.39;98260.75;4170916;28;20223;-62
2023/08/26 08:13:15;;;;;;;0.20;0.20;;;;;;;23.63;52.67;98269.94;4164196;28;20211;-63
2023/08/26 08:15:17;;;;;;;1.38;0.40;;;;;;;23.42;52.22;98274.66;4170013;28;21086;-63
2023/08/26 08:17:18;;;;;;;0.20;0.20;;;;;;;23.60;54.09;98265.84;4169659;28;20259;-63
2023/08/26 08:19:20;;;;;;;0.30;0.30;;;;;;;23.69;53.19;98269.38;4170057;28;20265;-63
2023/08/26 08:21:28;;;;;;;0.28;0.28;;;;;;;23.42;53.28;98269.06;4172572;28;20207;-64
2023/08/26 08:23:30;;;;;;;2.47;0.95;;;;;;;24.01;55.15;98275.03;4178715;22;20252;-87
2023/08/26 08:25:32;;;;;;;0.15;0.15;;;;;;;23.77;53.24;98266.53;4143012;28;20256;-87
2023/08/26 08:27:34;;;;;;;0.82;0.82;;;;;;;23.41;52.89;98267.44;4125066;28;20293;-86
2023/08/26 08:29:35;;;;;;;0.20;0.20;;;;;;;23.13;54.28;98266.28;4126849;28;20221;-88
2023/08/26 08:31:37;;;;;;;0.20;0.20;;;;;;;23.13;55.96;98272.72;4123518;28;20205;-88
2023/08/26 08:33:41;;;;;;;0.43;0.43;;;;;;;23.40;55.05;98277.00;4110671;28;20206;-88
2023/08/26 08:35:45;;;;;;;0.70;0.47;;;;;;;23.29;54.96;98273.78;4125111;28;20216;-88
2023/08/26 08:37:53;;;;;;;0.65;0.50;;;;;;;23.24;53.86;98265.59;4124521;28;22098;-89
2023/08/26 08:39:55;;;;;;;0.80;0.80;;;;;;;23.16;53.85;98274.03;4139191;28;20208;-87
2023/08/26 08:41:59;;;;;;;1.85;0.28;;;;;;;22.62;52.81;98283.25;4126438;28;20264;-87
2023/08/26 08:44:07;;;;;;;4.05;0.85;;;;;;;22.81;53.39;98278.09;4127068;28;20223;-88
2023/08/26 08:46:09;;;;;;;0.52;0.52;;;;;;;22.90;54.38;98273.31;4126349;28;20224;-86
2023/08/26 08:48:11;;;;;;;0.80;0.65;;;;;;;22.89;53.86;98272.50;4132468;28;20228;-87
2023/08/26 08:50:14;;;;;;;0.60;0.50;;;;;;;23.13;55.76;98277.47;4114505;28;20308;-87
2023/08/26 08:52:17;;;;;;;0.20;0.20;;;;;;;23.17;54.57;98279.25;4124642;28;20210;-88
2023/08/26 08:54:18;;;;;;;0.30;0.30;;;;;;;22.60;53.50;98280.00;4128561;28;20274;-88
2023/08/26 08:56:21;;;;;;;0.47;0.40;;;;;;;22.85;56.04;98281.88;4137809;28;20213;-89
2023/08/26 08:58:30;;;;;;;0.28;0.28;;;;;;;22.71;56.53;98265.34;4139244;28;20248;-89
2023/08/26 09:00:34;;;;;;;0.20;0.10;;;;;;;22.71;55.73;98272.91;4106889;28;20317;-88
2023/08/26 09:02:42;;;;;;;0.10;0.10;;;;;;;22.65;59.04;98279.81;4130108;28;20258;-87
2023/08/26 09:04:44;;;;;;;0.30;0.30;;;;;;;22.02;57.63;98274.19;4131549;28;20232;-88
2023/08/26 09:06:56;;;;;;;0.10;0.10;;;;;;;21.85;56.91;98271.44;4115690;28;20881;-88
2023/08/26 09:08:59;;;;;;;0.30;0.30;;;;;;;21.74;57.61;98281.25;4132493;28;20225;-87
2023/08/26 09:11:01;;;;;;;0.20;0.20;;;;;;;21.74;58.27;98279.31;4130623;28;20203;-87
2023/08/26 09:13:04;;;;;;;0.25;0.25;;;;;;;21.93;57.39;98282.59;4116406;28;20202;-87
2023/08/26 09:15:06;;;;;;;0.20;0.20;;;;;;;22.02;58.67;98271.41;4139523;28;20205;-88
2023/08/26 09:17:16;;;;;;;0.40;0.40;;;;;;;21.51;57.14;98271.41;4111371;28;20210;-89
2023/08/26 09:19:17;;;;;;;1.15;1.00;;;;;;;21.63;58.41;98271.59;4144741;28;20258;-87
2023/08/26 09:21:19;;;;;;;0.30;0.30;;;;;;;21.29;58.72;98271.53;4111026;28;20206;-86
2023/08/26 09:23:20;;;;;;;0.47;0.47;;;;;;;21.26;60.98;98269.41;4145246;28;20232;-87
2023/08/26 09:25:22;;;;;;;0.28;0.28;;;;;;;21.51;61.31;98275.00;4117262;28;20209;-86
2023/08/26 09:27:24;;;;;;;0.55;0.55;;;;;;;21.27;59.55;98273.81;4126539;28;20202;-88
2023/08/26 09:29:43;;;;;;;0.93;0.65;;;;;;;21.31;61.18;98275.63;4127842;28;20654;-87
2023/08/26 09:31:46;;;;;;;0.30;0.30;;;;;;;21.42;60.47;98265.81;4108997;28;20229;-87
2023/08/26 09:33:59;;;;;;;0.30;0.30;;;;;;;21.51;60.66;98274.19;4124607;28;20711;-88